createdAt,value
2019-02-12T00:01:24.619Z,6.47
2019-02-12T00:03:53.776Z,9.95
2019-02-12T00:06:22.749Z,8.07
2019-02-12T00:08:52.182Z,5.37
2019-02-12T00:11:21.220Z,5.20
2019-02-12T00:13:50.209Z,6.33
2019-02-12T00:16:19.279Z,5.80
2019-02-12T00:18:48.394Z,6.00
2019-02-12T00:21:17.402Z,6.90
2019-02-12T00:23:46.632Z,7.90
2019-02-12T00:26:15.960Z,7.73
2019-02-12T00:28:45.334Z,6.17
2019-02-12T00:31:14.363Z,4.47
2019-02-12T00:33:43.432Z,8.90
2019-02-12T00:36:12.808Z,7.47
2019-02-12T00:38:42.092Z,9.33
2019-02-12T00:41:11.179Z,7.57
2019-02-12T00:43:40.309Z,5.70
2019-02-12T00:46:09.276Z,11.13
2019-02-12T00:48:38.525Z,8.70
2019-02-12T00:51:07.949Z,5.30
2019-02-12T00:53:37.228Z,6.53
2019-02-12T00:56:06.341Z,9.97
2019-02-12T00:58:35.416Z,8.45
2019-02-12T01:01:04.700Z,6.80
2019-02-12T01:03:33.688Z,6.35
2019-02-12T01:06:02.735Z,6.80
2019-02-12T01:08:31.780Z,7.03
2019-02-12T01:11:00.840Z,10.83
2019-02-12T01:13:29.885Z,8.33
2019-02-12T01:15:58.959Z,7.42
2019-02-12T01:18:28.276Z,9.08
2019-02-12T01:20:57.376Z,9.17
2019-02-12T01:23:26.449Z,7.05
2019-02-12T01:25:55.456Z,8.40
2019-02-12T01:28:24.371Z,8.80
2019-02-12T01:30:53.439Z,7.03
2019-02-12T01:33:22.315Z,8.00
2019-02-12T01:35:51.407Z,7.37
2019-02-12T01:38:20.696Z,5.80
2019-02-12T01:40:50.305Z,5.93
2019-02-12T01:43:19.311Z,5.92
2019-02-12T01:45:48.568Z,5.63
2019-02-12T01:48:17.553Z,7.78
2019-02-12T01:50:46.900Z,10.37
2019-02-12T01:53:16.108Z,8.03
2019-02-12T01:55:45.404Z,4.97
2019-02-12T01:58:14.352Z,7.78
2019-02-12T02:00:43.673Z,6.33
2019-02-12T02:03:12.652Z,4.72
2019-02-12T02:05:41.678Z,4.58
2019-02-12T02:08:10.720Z,4.47
2019-02-12T02:10:40.053Z,6.40
2019-02-12T02:13:09.298Z,6.10
2019-02-12T02:15:38.357Z,8.77
2019-02-12T02:18:07.507Z,6.55
2019-02-12T02:20:36.849Z,9.03
2019-02-12T02:23:06.484Z,8.10
2019-02-12T02:36:13.816Z,10.73
2019-02-12T02:38:43.107Z,5.47
2019-02-12T02:41:12.319Z,6.40
2019-02-12T02:43:41.140Z,8.45
2019-02-12T02:46:10.048Z,7.30
2019-02-12T02:48:38.928Z,7.65
2019-02-12T02:51:08.311Z,5.20
2019-02-12T02:53:37.142Z,7.60
2019-02-12T02:56:06.477Z,5.13
2019-02-12T02:58:35.719Z,9.28
2019-02-12T03:01:04.618Z,10.00
2019-02-12T03:03:33.815Z,4.83
2019-02-12T03:06:02.795Z,7.10
2019-02-12T03:08:31.965Z,9.00
2019-02-12T03:11:00.810Z,5.40
2019-02-12T03:13:29.759Z,9.50
2019-02-12T03:15:58.690Z,6.67
2019-02-12T03:18:27.634Z,4.70
2019-02-12T03:20:56.608Z,8.25
2019-02-12T03:23:25.808Z,11.03
2019-02-12T03:25:55.002Z,7.27
2019-02-12T03:28:24.248Z,6.10
2019-02-12T03:30:53.244Z,8.03
2019-02-12T03:33:22.459Z,9.80
2019-02-12T03:35:51.693Z,7.40
2019-02-12T03:38:20.730Z,6.03
2019-02-12T03:40:49.606Z,6.87
2019-02-12T03:43:18.616Z,6.40
2019-02-12T03:45:47.419Z,7.62
2019-02-12T03:48:16.390Z,8.30
2019-02-12T03:50:45.482Z,6.37
2019-02-12T03:53:14.477Z,6.83
2019-02-12T03:55:43.425Z,8.00
2019-02-12T03:58:12.714Z,7.42
2019-02-12T04:00:42.402Z,7.03
2019-02-12T04:03:11.519Z,6.10
2019-02-12T04:05:40.855Z,8.00
2019-02-12T04:08:09.869Z,10.50
2019-02-12T04:10:39.056Z,7.90
2019-02-12T04:13:08.285Z,6.47
2019-02-12T04:15:37.575Z,5.80
2019-02-12T04:18:06.791Z,8.10
2019-02-12T04:20:35.892Z,6.20
2019-02-12T04:23:04.866Z,8.48
2019-02-12T04:25:33.815Z,8.50
2019-02-12T04:28:02.850Z,9.08
2019-02-12T04:30:31.803Z,10.53
2019-02-12T04:33:00.736Z,9.35
2019-02-12T04:35:29.980Z,7.67
2019-02-12T04:37:58.979Z,11.22
2019-02-12T04:40:27.928Z,9.77
2019-02-12T04:42:56.869Z,8.78
2019-02-12T04:45:26.141Z,9.63
2019-02-12T04:47:55.139Z,9.95
2019-02-12T04:50:24.035Z,7.95
2019-02-12T04:52:52.958Z,10.15
2019-02-12T04:55:21.910Z,15.63
2019-02-12T04:57:50.803Z,6.95
2019-02-12T05:00:19.819Z,11.68
2019-02-12T05:02:48.772Z,8.48
2019-02-12T05:05:17.817Z,7.97
2019-02-12T05:07:47.064Z,13.90
2019-02-12T05:10:16.939Z,11.83
2019-02-12T05:12:45.891Z,7.67
2019-02-12T05:15:14.823Z,7.22
2019-02-12T05:17:43.723Z,10.82
2019-02-12T05:20:13.230Z,12.98
2019-02-12T05:22:43.825Z,11.08
2019-02-12T05:25:13.015Z,8.85
2019-02-12T05:27:41.945Z,12.28
2019-02-12T05:30:11.454Z,5.50
2019-02-12T05:32:40.671Z,11.80
2019-02-12T05:35:09.983Z,7.75
2019-02-12T05:37:38.953Z,11.05
2019-02-12T05:40:08.636Z,9.03
2019-02-12T05:42:37.663Z,10.30
2019-02-12T05:45:08.647Z,7.55
2019-02-12T05:47:37.482Z,9.93
2019-02-12T05:50:10.172Z,8.75
2019-02-12T05:52:39.114Z,9.30
2019-02-12T05:55:08.284Z,9.50
2019-02-12T05:57:37.326Z,8.40
2019-02-12T06:00:08.600Z,13.15
2019-02-12T06:02:37.664Z,8.63
2019-02-12T06:05:07.937Z,9.88
2019-02-12T06:07:37.145Z,10.68
2019-02-12T06:10:07.711Z,10.60
2019-02-12T06:12:36.655Z,10.80
2019-02-12T06:15:05.874Z,12.53
2019-02-12T06:17:34.824Z,7.42
2019-02-12T06:20:04.144Z,8.95
2019-02-12T06:22:33.378Z,6.70
2019-02-12T06:25:02.333Z,7.42
2019-02-12T06:27:31.399Z,9.40
2019-02-12T06:30:00.469Z,9.28
2019-02-12T06:32:29.548Z,11.97
2019-02-12T06:34:58.443Z,10.68
2019-02-12T06:37:27.268Z,11.83
2019-02-12T06:39:56.187Z,8.40
2019-02-12T06:42:25.123Z,10.70
2019-02-12T06:44:54.019Z,9.25
2019-02-12T06:47:23.241Z,7.00
2019-02-12T06:49:52.198Z,10.85
2019-02-12T06:52:21.404Z,11.77
2019-02-12T06:54:50.490Z,11.00
2019-02-12T06:57:19.906Z,8.83
2019-02-12T06:59:48.760Z,10.85
2019-02-12T07:02:53.747Z,9.88
2019-02-12T07:05:22.673Z,10.78
2019-02-12T07:08:26.451Z,10.08
2019-02-12T07:10:56.318Z,10.73
2019-02-12T07:13:31.127Z,15.18
2019-02-12T07:16:09.535Z,8.87
2019-02-12T07:19:26.037Z,12.25
2019-02-12T07:22:44.181Z,8.30
2019-02-12T07:25:48.222Z,11.68
2019-02-12T07:28:32.812Z,9.05
2019-02-12T07:31:38.197Z,8.17
2019-02-12T07:34:37.255Z,8.93
2019-02-12T07:37:43.173Z,11.10
2019-02-12T07:40:34.774Z,7.72
2019-02-12T07:43:15.786Z,12.45
2019-02-12T07:46:32.096Z,13.73
2019-02-12T07:49:23.770Z,11.50
2019-02-12T07:52:16.467Z,9.17
2019-02-12T07:55:15.321Z,8.90
2019-02-12T07:58:21.247Z,8.85
2019-02-12T08:01:17.254Z,9.43
2019-02-12T08:04:42.411Z,7.55
2019-02-12T08:07:51.610Z,9.63
2019-02-12T08:10:33.050Z,8.90
2019-02-12T08:13:46.459Z,12.33
2019-02-12T08:17:13.008Z,8.87
2019-02-12T08:20:38.557Z,9.90
2019-02-12T08:23:19.130Z,8.03
2019-02-12T08:26:44.947Z,10.00
2019-02-12T08:29:57.383Z,10.78
2019-02-12T08:33:07.141Z,10.17
2019-02-12T08:36:16.075Z,10.17
2019-02-12T08:39:29.175Z,15.35
2019-02-12T08:42:36.913Z,13.10
2019-02-12T08:45:46.933Z,14.25
2019-02-12T08:48:28.794Z,12.18
2019-02-12T08:51:42.470Z,9.70
2019-02-12T08:54:39.918Z,10.25
2019-02-12T08:57:29.983Z,12.97
2019-02-12T09:00:21.121Z,9.95
2019-02-12T09:03:15.191Z,11.85
2019-02-12T09:06:17.523Z,10.90
2019-02-12T09:09:01.851Z,14.33
2019-02-12T09:12:11.963Z,13.87
2019-02-12T09:15:03.202Z,11.97
2019-02-12T09:18:10.477Z,11.45
2019-02-12T09:21:02.067Z,12.00
2019-02-12T09:24:00.207Z,13.60
2019-02-12T09:26:42.875Z,11.53
2019-02-12T09:29:40.943Z,14.47
2019-02-12T09:33:03.228Z,9.47
2019-02-12T09:36:04.866Z,11.77
2019-02-12T09:38:48.195Z,16.67
2019-02-12T09:41:41.789Z,13.60
2019-02-12T09:44:44.434Z,12.90
2019-02-12T09:47:39.517Z,15.35
2019-02-12T09:51:04.266Z,10.48
2019-02-12T09:54:08.671Z,15.15
2019-02-12T09:57:43.639Z,14.33
2019-02-12T10:00:52.370Z,13.78
2019-02-12T10:04:04.845Z,12.00
2019-02-12T10:07:17.634Z,11.88
2019-02-12T10:10:02.659Z,16.82
2019-02-12T10:13:04.918Z,14.67
2019-02-12T10:16:16.786Z,16.43
2019-02-12T10:19:24.514Z,20.40
2019-02-12T10:22:46.267Z,11.03
2019-02-12T10:25:39.220Z,13.35
2019-02-12T10:28:48.554Z,14.85
2019-02-12T10:31:41.138Z,13.20
2019-02-12T10:34:10.577Z,11.25
2019-02-12T10:36:39.663Z,13.40
2019-02-12T10:39:15.817Z,15.28
2019-02-12T10:41:45.069Z,17.13
2019-02-12T10:44:14.143Z,11.48
2019-02-12T10:46:43.215Z,14.67
2019-02-12T10:49:14.000Z,12.82
2019-02-12T10:51:43.505Z,12.65
2019-02-12T10:54:13.653Z,12.45
2019-02-12T10:56:42.878Z,18.60
2019-02-12T10:59:11.842Z,13.95
2019-02-12T11:01:40.953Z,13.18
2019-02-12T11:04:10.334Z,12.78
2019-02-12T11:06:39.707Z,13.47
2019-02-12T11:09:09.914Z,10.78
2019-02-12T11:11:38.984Z,16.50
2019-02-12T11:14:08.002Z,13.60
2019-02-12T11:16:37.031Z,13.13
2019-02-12T11:19:06.148Z,15.58
2019-02-12T11:21:35.101Z,17.30
2019-02-12T11:24:04.305Z,18.85
2019-02-12T11:26:33.335Z,13.53
2019-02-12T11:29:02.419Z,15.08
2019-02-12T11:31:31.455Z,11.47
2019-02-12T11:34:00.594Z,15.40
2019-02-12T11:36:29.597Z,17.37
2019-02-12T11:39:02.360Z,13.78
2019-02-12T11:41:31.666Z,16.13
2019-02-12T11:44:00.858Z,10.45
2019-02-12T11:46:29.882Z,11.97
2019-02-12T11:48:58.738Z,10.40
2019-02-12T11:51:27.797Z,14.87
2019-02-12T11:53:56.660Z,9.50
2019-02-12T11:56:25.889Z,13.13
2019-02-12T11:58:55.477Z,14.03
2019-02-12T12:01:27.863Z,11.87
2019-02-12T12:03:56.887Z,9.05
2019-02-12T12:06:29.022Z,13.27
2019-02-12T12:08:58.367Z,13.40
2019-02-12T12:11:27.330Z,12.70
2019-02-12T12:13:56.748Z,17.55
2019-02-12T12:16:25.759Z,8.77
2019-02-12T12:18:57.396Z,13.30
2019-02-12T12:21:26.818Z,11.93
2019-02-12T12:23:55.968Z,15.30
2019-02-12T12:26:24.879Z,13.80
2019-02-12T12:28:53.838Z,14.40
2019-02-12T12:31:23.034Z,14.40
2019-02-12T12:33:53.131Z,14.83
2019-02-12T12:36:22.836Z,13.70
2019-02-12T12:38:51.740Z,11.83
2019-02-12T12:41:21.114Z,14.63
2019-02-12T12:43:50.316Z,12.15
2019-02-12T12:46:19.828Z,10.13
2019-02-12T12:48:48.895Z,11.18
2019-02-12T12:51:18.053Z,14.00
2019-02-12T12:53:46.923Z,11.33
2019-02-12T12:56:16.042Z,16.17
2019-02-12T12:58:44.910Z,16.82
2019-02-12T13:01:13.849Z,12.88
2019-02-12T13:03:42.755Z,11.88
2019-02-12T13:06:11.835Z,8.67
2019-02-12T13:08:40.747Z,13.40
2019-02-12T13:11:09.703Z,12.70
2019-02-12T13:13:38.686Z,16.85
2019-02-12T13:16:07.734Z,16.33
2019-02-12T13:18:36.874Z,9.73
2019-02-12T13:21:05.851Z,8.87
2019-02-12T13:23:34.967Z,9.35
2019-02-12T13:26:03.877Z,9.88
2019-02-12T13:28:33.004Z,12.63
2019-02-12T13:31:02.215Z,9.67
2019-02-12T13:33:31.278Z,13.35
2019-02-12T13:36:00.669Z,12.73
2019-02-12T13:38:29.609Z,5.70
2019-02-12T13:40:58.448Z,7.60
2019-02-12T13:43:27.463Z,6.33
2019-02-12T13:45:56.402Z,7.97
2019-02-12T13:48:25.309Z,9.68
2019-02-12T13:50:54.162Z,7.37
2019-02-12T13:53:23.586Z,6.95
2019-02-12T13:55:52.420Z,8.75
2019-02-12T13:58:21.363Z,9.28
2019-02-12T14:00:50.401Z,6.70
2019-02-12T14:03:22.546Z,9.63
2019-02-12T14:05:50.515Z,9.93
2019-02-12T14:08:19.390Z,8.03
2019-02-12T14:10:48.434Z,9.80
2019-02-12T14:13:17.295Z,8.13
2019-02-12T14:15:46.373Z,5.83
2019-02-12T14:18:15.463Z,10.85
2019-02-12T14:20:44.891Z,5.50
2019-02-12T14:23:13.975Z,7.58
2019-02-12T14:25:43.182Z,8.57
2019-02-12T14:28:12.529Z,8.90
2019-02-12T14:30:41.621Z,5.62
2019-02-12T14:33:11.939Z,4.62
2019-02-12T14:35:44.030Z,5.57
2019-02-12T14:38:14.704Z,6.80
2019-02-12T14:40:44.029Z,13.00
2019-02-12T14:43:14.442Z,5.50
2019-02-12T14:45:43.596Z,4.57
2019-02-12T14:48:12.795Z,3.52
2019-02-12T14:50:41.875Z,8.53
2019-02-12T14:53:11.070Z,3.35
2019-02-12T14:55:40.040Z,6.57
2019-02-12T14:58:10.124Z,7.83
2019-02-12T15:00:39.802Z,4.55
2019-02-12T15:03:09.027Z,6.70
2019-02-12T15:05:38.530Z,5.47
2019-02-12T15:08:07.629Z,3.52
2019-02-12T15:10:36.916Z,6.07
2019-02-12T15:13:06.010Z,6.20
2019-02-12T15:15:35.711Z,5.50
2019-02-12T15:18:04.662Z,8.23
2019-02-12T15:20:34.025Z,5.57
2019-02-12T15:23:03.630Z,5.87
2019-02-12T15:25:33.056Z,3.87
2019-02-12T15:28:02.108Z,6.70
2019-02-12T15:30:31.750Z,7.30
2019-02-12T15:33:00.889Z,5.87
2019-02-12T15:35:30.169Z,6.60
2019-02-12T15:37:59.531Z,8.08
2019-02-12T15:40:28.581Z,3.02
2019-02-12T15:42:57.570Z,5.58
2019-02-12T15:45:26.857Z,5.50
2019-02-12T15:47:57.593Z,6.03
2019-02-12T15:50:26.587Z,5.58
2019-02-12T15:52:58.513Z,4.83
2019-02-12T15:55:28.058Z,4.00
2019-02-12T15:58:05.816Z,5.87
2019-02-12T16:00:36.250Z,5.00
2019-02-12T16:03:08.574Z,5.53
2019-02-12T16:05:38.215Z,4.87
2019-02-12T16:08:09.304Z,5.60
2019-02-12T16:10:42.100Z,2.97
2019-02-12T16:13:11.652Z,3.75
2019-02-12T16:15:43.529Z,5.87
2019-02-12T16:18:13.549Z,4.95
2019-02-12T16:20:42.634Z,3.45
2019-02-12T16:23:11.874Z,6.10
2019-02-12T16:25:40.964Z,4.10
2019-02-12T16:28:10.047Z,4.08
2019-02-12T16:30:39.306Z,5.43
2019-02-12T16:33:08.418Z,2.67
2019-02-12T16:35:37.576Z,3.20
2019-02-12T16:38:06.731Z,5.67
2019-02-12T16:40:35.722Z,3.07
2019-02-12T16:43:05.122Z,3.27
2019-02-12T16:45:41.983Z,4.63
2019-02-12T16:48:11.220Z,5.67
2019-02-12T16:50:40.288Z,4.77
2019-02-12T16:53:09.814Z,3.22
2019-02-12T16:55:39.996Z,5.10
2019-02-12T16:58:10.191Z,6.47
2019-02-12T17:00:39.510Z,4.47
2019-02-12T17:03:09.063Z,4.08
2019-02-12T17:05:38.489Z,2.00
2019-02-12T17:08:08.280Z,4.95
2019-02-12T17:10:37.830Z,5.63
2019-02-12T17:13:07.418Z,5.90
2019-02-12T17:15:36.747Z,5.70
2019-02-12T17:18:05.860Z,4.30
2019-02-12T17:20:34.963Z,3.77
2019-02-12T17:23:04.274Z,4.40
2019-02-12T17:25:33.456Z,6.57
2019-02-12T17:28:02.628Z,4.83
2019-02-12T17:30:31.648Z,4.53
2019-02-12T17:33:00.742Z,4.65
2019-02-12T17:35:30.051Z,4.63
2019-02-12T17:37:59.903Z,7.30
2019-02-12T17:40:29.266Z,5.70
2019-02-12T17:42:58.366Z,4.95
2019-02-12T17:45:27.818Z,4.87
2019-02-12T17:47:57.315Z,5.85
2019-02-12T17:50:26.488Z,4.12
2019-02-12T17:52:55.641Z,7.03
2019-02-12T17:55:24.788Z,3.55
2019-02-12T17:57:53.974Z,5.03
2019-02-12T18:00:27.224Z,5.75
2019-02-12T18:02:56.414Z,4.42
2019-02-12T18:05:25.455Z,7.28
2019-02-12T18:07:54.451Z,6.28
2019-02-12T18:10:23.567Z,5.97
2019-02-12T18:12:52.803Z,7.25
2019-02-12T18:15:22.243Z,5.70
2019-02-12T18:17:51.298Z,5.08
2019-02-12T18:20:26.303Z,5.08
2019-02-12T18:22:51.514Z,4.75
2019-02-12T18:25:20.429Z,5.15
2019-02-12T18:27:49.846Z,3.87
2019-02-12T18:30:19.015Z,7.00
2019-02-12T18:32:48.074Z,4.50
2019-02-12T18:35:17.114Z,8.18
2019-02-12T18:37:46.254Z,8.60
2019-02-12T18:40:15.288Z,7.08
2019-02-12T18:42:44.314Z,4.83
2019-02-12T18:45:14.626Z,6.28
2019-02-12T18:47:43.670Z,6.25
2019-02-12T18:50:13.006Z,8.23
2019-02-12T18:52:42.769Z,5.62
2019-02-12T18:55:12.553Z,4.58
2019-02-12T18:57:41.563Z,7.92
2019-02-12T19:00:13.485Z,7.62
2019-02-12T19:02:42.413Z,6.22
2019-02-12T19:05:11.587Z,5.80
2019-02-12T19:07:42.726Z,5.17
2019-02-12T19:10:12.369Z,8.15
2019-02-12T19:12:41.686Z,7.47
2019-02-12T19:15:12.883Z,5.33
2019-02-12T19:17:42.332Z,4.87
2019-02-12T19:20:12.426Z,7.35
2019-02-12T19:22:41.535Z,7.83
2019-02-12T19:25:10.610Z,12.05
2019-02-12T19:27:39.667Z,7.00
2019-02-12T19:30:10.155Z,7.78
2019-02-12T19:32:39.489Z,8.00
2019-02-12T19:35:08.806Z,4.95
2019-02-12T19:37:37.751Z,7.12
2019-02-12T19:40:08.348Z,5.72
2019-02-12T19:42:37.514Z,6.50
2019-02-12T19:45:08.548Z,6.33
2019-02-12T19:47:37.674Z,5.53
2019-02-12T19:50:08.441Z,4.58
2019-02-12T19:52:37.484Z,6.95
2019-02-12T19:55:07.860Z,5.62
2019-02-12T19:57:36.944Z,6.78
2019-02-12T20:00:07.568Z,5.60
2019-02-12T20:02:36.572Z,4.03
2019-02-12T20:05:06.564Z,5.10
2019-02-12T20:07:35.545Z,5.22
2019-02-12T20:10:04.888Z,4.22
2019-02-12T20:12:33.847Z,6.22
2019-02-12T20:15:02.958Z,5.72
2019-02-12T20:17:32.402Z,6.00
2019-02-12T20:20:01.401Z,6.15
2019-02-12T20:22:30.767Z,5.70
2019-02-12T20:24:59.676Z,5.45
2019-02-12T20:27:35.729Z,6.67
2019-02-12T20:29:59.345Z,5.08
2019-02-12T20:32:28.728Z,11.77
2019-02-12T20:34:57.948Z,23.22
2019-02-12T20:37:26.886Z,11.90
2019-02-12T20:39:56.027Z,8.53
2019-02-12T20:42:25.140Z,8.25
2019-02-12T20:44:54.096Z,6.85
2019-02-12T20:47:23.654Z,6.60
2019-02-12T20:49:52.878Z,4.00
2019-02-12T20:52:21.909Z,4.03
2019-02-12T20:54:50.880Z,6.00
2019-02-12T20:57:19.886Z,6.33
2019-02-12T20:59:48.935Z,6.03
2019-02-12T21:02:17.876Z,4.10
2019-02-12T21:04:46.967Z,6.03
2019-02-12T21:07:15.960Z,6.30
2019-02-12T21:09:45.155Z,4.33
2019-02-12T21:12:14.241Z,10.90
2019-02-12T21:14:43.186Z,15.48
2019-02-12T21:17:12.870Z,14.27
2019-02-12T21:19:42.264Z,9.48
2019-02-12T21:22:11.178Z,13.30
2019-02-12T21:24:40.194Z,10.30
2019-02-12T21:27:09.119Z,8.83
2019-02-12T21:29:38.347Z,8.48
2019-02-12T21:32:07.415Z,6.72
2019-02-12T21:34:36.321Z,6.42
2019-02-12T21:37:05.461Z,7.23
2019-02-12T21:39:35.024Z,8.00
2019-02-12T21:42:04.166Z,7.60
2019-02-12T21:44:33.163Z,5.50
2019-02-12T21:47:03.441Z,6.67
2019-02-12T21:49:34.993Z,5.62
2019-02-12T21:52:05.944Z,7.17
2019-02-12T21:54:35.158Z,6.03
2019-02-12T21:57:04.438Z,7.37
2019-02-12T21:59:33.325Z,5.22
2019-02-12T22:02:02.570Z,6.10
2019-02-12T22:04:31.805Z,4.67
2019-02-12T22:07:00.746Z,5.72
2019-02-12T22:09:30.079Z,5.75
2019-02-12T22:11:59.031Z,4.70
2019-02-12T22:14:27.895Z,3.60
2019-02-12T22:16:56.932Z,6.28
2019-02-12T22:19:26.207Z,4.53
2019-02-12T22:21:55.430Z,4.13
2019-02-12T22:24:24.423Z,5.55
2019-02-12T22:26:53.679Z,5.40
2019-02-12T22:29:22.582Z,6.60
2019-02-12T22:31:51.676Z,4.53
2019-02-12T22:34:20.566Z,3.67
2019-02-12T22:36:49.706Z,3.40
2019-02-12T22:39:18.665Z,3.60
2019-02-12T22:41:47.591Z,3.35
2019-02-12T22:44:16.534Z,6.50
2019-02-12T22:46:45.462Z,4.70
2019-02-12T22:49:14.443Z,4.37
2019-02-12T22:51:43.304Z,3.45
2019-02-12T22:54:12.320Z,3.25
2019-02-12T22:56:41.595Z,3.83
2019-02-12T22:59:10.548Z,3.55
2019-02-12T23:01:40.468Z,3.30
2019-02-12T23:04:09.419Z,4.40
2019-02-12T23:06:38.700Z,5.53
2019-02-12T23:09:19.052Z,5.15
2019-02-12T23:11:48.155Z,6.03
2019-02-12T23:14:18.290Z,3.80
2019-02-12T23:16:47.284Z,3.80
2019-02-12T23:19:16.232Z,5.47
2019-02-12T23:21:45.048Z,4.93
2019-02-12T23:24:13.982Z,4.42
2019-02-12T23:26:43.418Z,5.77
2019-02-12T23:29:12.571Z,4.72
2019-02-12T23:31:41.438Z,3.72
2019-02-12T23:34:10.318Z,5.15
2019-02-12T23:36:39.674Z,4.97
2019-02-12T23:39:08.711Z,4.80
2019-02-12T23:41:37.689Z,5.13
2019-02-12T23:44:06.995Z,5.70
2019-02-12T23:46:36.122Z,5.80
2019-02-12T23:49:05.162Z,4.85
2019-02-12T23:51:34.490Z,5.87
2019-02-12T23:54:03.427Z,7.92
2019-02-12T23:56:32.276Z,4.57
2019-02-12T23:59:01.167Z,6.28
